Renato Carrillo

Recruteur en chef - Alianza Lima
23 Oct 2027
Samedi
Processus

Personnalité

Adaptabilité (9) Ambition (9) Controverse (12) Loyauté (18) Pression (19) Professionnalisme (13) Sportivité (6) Tempérament (5)

Profil

Style d'entraînement Démocratique
Diplôme National B
Détermination 10
Gestion des joueurs 8
Motivation 9
Discipline 8
Satisfaction professionnelle
100%
Fatigue
0%
Rôle Recruteur en chef
Salaire 36.8K p/s
Contrat 14.03.2029

Performance

Comportement Bon
Efficacité de l'entraînement
44%
Développement des joueurs
25%
Prévention des blessures
45%
Mise en place tactique
50%

Événements récents

A participé à une réunion de recrutement maintenant
A recommandé une cible de transfert maintenant
A participé à une réunion de recrutement maintenant
A recommandé une cible de transfert 7j
A participé à une réunion de recrutement 7j
A recommandé une cible de transfert 7j
A recommandé une cible de transfert 7j
A évalué un joueur 7j

Suivi en cours

252
Joueur Club Statut Capacité Confiance Observé Dernière observation Dernier vote
Bruno Palazzo Nueva Chicago Actif 116 / 116 40% 3 14.10.2027 -
Agustín Bolívar Quilmes Actif 114 / 109 40% 2 14.10.2027 -
Juan Yangali San Telmo Actif 115 / 113 40% 2 14.10.2027 -
Mateo Mendoza Godoy Cruz Actif 128 / 130 40% 3 10.10.2027 -
Federico Pérez Agropecuario Argentino Actif 108 / 122 40% 3 10.10.2027 -
Nahuel Banegas Tigre Actif 121 / 113 40% 2 10.10.2027 -
Gonzalo Abrego Godoy Cruz Actif 129 / 127 40% 3 09.10.2027 -
Leandro Lucero Temperley Actif 114 / 122 40% 2 09.10.2027 -
César Ibáñez Huracán Actif 125 / 119 40% 1 09.10.2027 -
Claudio Bravo Argentinos Juniors Actif 128 / 123 40% 1 08.10.2027 -
Santiago González Tigre Actif 134 / 135 40% 1 08.10.2027 -
Ignacio Abraham Banfield Actif 120 / 128 40% 1 08.10.2027 -
Thomas Ortega Quilmes Actif 110 / 109 40% 3 07.10.2027 -
Maximiliano Luayza Koot Tristán Suárez Actif 108 / 117 40% 1 07.10.2027 -
Emanuel Coronel Rosario Central Actif 130 / 119 40% 1 07.10.2027 -
Franco Quinteros Estudiantes Actif 112 / 107 40% 5 06.10.2027 -
Lucas Arce Godoy Cruz Actif 129 / 126 40% 7 05.10.2027 -
Onuorah Onyedika Kun Khalifat Actif 91 / 95 40% 3 05.10.2027 -
Óscar Hinojosa Metropolitanos Actif 81 / 93 40% 3 05.10.2027 -
Alejandro Molina Tristán Suárez Actif 116 / 111 40% 2 05.10.2027 -
Facundo Balatti Penarol Actif 99 / 117 40% 2 05.10.2027 -
Thiago Drago Quilmes Actif 82 / 96 40% 1 04.10.2027 -
Sebastián Flores Rayo Vallecano Actif 106 / 127 40% 1 04.10.2027 -
Uche Jaguar Kwara United Actif 85 / 109 40% 1 04.10.2027 -
Misael Tarón Ferro Carril Oeste Actif 114 / 113 40% 4 03.10.2027 -
Juan Camilo Córdoba Deportivo Pereira Actif 93 / 90 40% 3 01.10.2027 -
Alejo Tabares All Boys Actif 122 / 122 40% 3 01.10.2027 -
Maico Quiroz Güemes Actif 121 / 122 40% 2 01.10.2027 -
Celías Ingenthron Platense Actif 119 / 122 40% 2 01.10.2027 -
Bautista Mamousse Chacarita Juniors Actif 82 / 93 40% 1 01.10.2027 -
Jackson Imbiakha Muranga Seal Actif 69 / 85 40% 2 29.09.2027 -
Hosea Michael Remo Stars Actif 99 / 105 40% 1 28.09.2027 -
Sheriff Amuda Shooting Stars Actif 79 / 98 40% 1 28.09.2027 -
Nahuel Leivas Montevideo City Torque Actif 104 / 112 40% 5 27.09.2027 -
Juan Giménez Rosario Central Actif 111 / 127 40% 2 27.09.2027 -
Lucas Angelini Temperley Actif 108 / 115 40% 2 25.09.2027 -
Gonzalo Mottes Chacarita Juniors Actif 117 / 111 40% 1 25.09.2027 -
Franco Díaz Temperley Actif 124 / 125 40% 1 25.09.2027 -
Agustín Dattola Almirante Brown Actif 119 / 109 40% 2 24.09.2027 -
Fernando Rodríguez Almirante Brown Actif 110 / 115 40% 2 24.09.2027 -
Damián Adín San Miguel Actif 119 / 121 40% 1 23.09.2027 -
Raúl Lozano Quilmes Actif 123 / 115 40% 2 22.09.2027 -
Samuel Lucero Defensa y Justicia Actif 116 / 115 40% 2 20.09.2027 -
Diego Osio Deportivo La Guaira Actif 119 / 105 40% 2 20.09.2027 -
Tomás Escalante Plaza Colonia Actif 129 / 122 40% 1 20.09.2027 -
Agustín Benítez Defensores Actif 113 / 108 40% 1 19.09.2027 -
Agustín Obregón River Plate Actif 116 / 126 40% 1 19.09.2027 -
Gideon Manaseh Ikorodu City Actif 78 / 87 40% 1 19.09.2027 -
Valentino Massi Sarmiento Actif 98 / 110 40% 1 18.09.2027 -
Santino Baldassarri Quilmes Actif 81 / 86 40% 1 18.09.2027 -
Emmanuel Akpan Bendel Insurance Actif 77 / 77 40% 1 18.09.2027 -
Gonzalo Asis Almagro Actif 117 / 116 40% 3 16.09.2027 -
Aarón Quiros Vélez Actif 126 / 133 40% 1 16.09.2027 -
Facundo Ardiles Estudiantes Actif 109 / 102 40% 1 16.09.2027 -
Vicente Poggi Godoy Cruz Actif 120 / 125 40% 6 15.09.2027 -
Felipe Obradovich Gimnasia La Plata Actif 102 / 124 40% 3 15.09.2027 -
Gabriel Díaz Patronato Actif 120 / 121 40% 2 15.09.2027 -
Tiago Gordillo San Miguel Actif 84 / 96 40% 2 15.09.2027 -
Mauro Osores San Martín SJ Actif 117 / 111 40% 1 15.09.2027 -
Martín Jiménez Audax Italiano Actif 105 / 114 40% 1 15.09.2027 -
Lautaro Montoya Gimnasia y Tiro Actif 111 / 106 40% 3 13.09.2027 -
Federico Pereira Huracán Actif 144 / 143 40% 1 13.09.2027 -
Martín García Atlanta Actif 115 / 115 40% 1 12.09.2027 -
Santiago Espíndola River Plate Actif 101 / 120 40% 1 12.09.2027 -
Felipe Faúndez O'Higgins Actif 103 / 109 40% 1 12.09.2027 -
Agustín Medina Lanús Actif 116 / 124 40% 3 11.09.2027 -
Lucas Souto Defensa y Justicia Actif 128 / 124 40% 2 08.09.2027 -
Ulises Yegros Ferro Carril Oeste Actif 116 / 114 40% 2 08.09.2027 -
Sheyko Studer Independiente Rivadavia Actif 131 / 127 40% 1 08.09.2027 -
Nicolás Previtali Atlanta Actif 110 / 120 40% 1 07.09.2027 -
Azizbek To'lqinbekov Bunyodkor Actif 88 / 109 40% 1 07.09.2027 -
Olaniyi Saheed Kwara United Actif 98 / 103 40% 1 07.09.2027 -
Gift Isioma Warri Wolves Actif 80 / 91 40% 1 07.09.2027 -
Federico Barrandeguy Juventud Actif 116 / 110 40% 1 05.09.2027 -
Valente Pierani Boca Juniors Actif 112 / 128 40% 1 05.09.2027 -
Alan Morinigo Olimpia Actif 116 / 120 40% 1 05.09.2027 -
Christian Larotonda Caracas Actif 114 / 109 40% 2 03.09.2027 -
Marco Saravia Progreso Actif 112 / 115 40% 3 02.09.2027 -
Marcos López San Martín Actif 133 / 129 40% 1 01.09.2027 -
Ezequiel Neira Carabobo Actif 113 / 120 40% 1 01.09.2027 -
Gustavo Turraca All Boys Actif 119 / 116 40% 1 31.08.2027 -
Emiliano Álvarez Progreso Actif 121 / 115 40% 1 30.08.2027 -
Lautaro Dufur Rentistas Actif 96 / 112 40% 1 30.08.2027 -
Diego Cheuquepal Racing Actif 94 / 112 40% 1 30.08.2027 -
Matías Argüello Libertad Actif 99 / 101 40% 1 30.08.2027 -
Rodrigo González Aldosivi Actif 124 / 127 40% 1 27.08.2027 -
Matías Machado Racing Actif 120 / 116 40% 2 26.08.2027 -
Tomás Rojas Atlanta Actif 111 / 110 40% 1 26.08.2027 -
Lucas Agazzi Defensor Sporting Actif 115 / 119 40% 1 26.08.2027 -
Franco Ibarra Rosario Central Actif 134 / 125 40% 1 25.08.2027 -
Ulises Ortegoza Talleres Actif 131 / 123 40% 1 25.08.2027 -
Geanfranco Rodríguez Defensor Sporting Actif 94 / 104 40% 1 24.08.2027 -
Adrián Spörle Belgrano Actif 124 / 124 40% 1 21.08.2027 -
Maxwell Azafokpe Inter Allies Actif 70 / 95 40% 1 20.08.2027 -
Godwin Oham Warri Wolves Actif 90 / 88 40% 1 20.08.2027 -
Rodrigo Melo Estudiantes Actif 110 / 112 40% 1 20.08.2027 -
Nicolás Demartini Temperley Actif 116 / 114 40% 2 19.08.2027 -
Camilo Cándido Nacional Actif 121 / 119 40% 1 19.08.2027 -
Matías Canedo Rampla Juniors Actif 78 / 85 40% 1 18.08.2027 -
Mbekezeli Mbokazi Chicago Fire Actif 126 / 133 40% 1 18.08.2027 -
Nahuel Furtado Wanderers Actif 124 / 124 40% 1 16.08.2027 -
Nicolás Fernández Tristán Suárez Actif 116 / 112 40% 1 16.08.2027 -
Inti Borghetto Patronato Actif 96 / 94 40% 1 15.08.2027 -
Leonardo Mendicino Bari Actif 113 / 113 40% 1 15.08.2027 -
Enzo Cardozo Virtus Entella Actif 125 / 107 40% 2 13.08.2027 -
Luis Milla Como Actif 149 / 139 40% 1 13.08.2027 -
Ramón Terrats Getafe Actif 138 / 137 40% 1 13.08.2027 -
Gladson Sulemana Liberty Professionals Actif 92 / 95 40% 1 12.08.2027 -
Joel Ezra Enyimba Actif 92 / 98 40% 1 12.08.2027 -
Juan David Arizala Udinese Actif 127 / 142 40% 1 12.08.2027 -
Bruno Leyes Godoy Cruz Actif 127 / 127 40% 2 11.08.2027 -
Toni Abad Ceuta Actif 108 / 108 40% 1 11.08.2027 -
Juan Saborido Platense Actif 125 / 122 40% 1 10.08.2027 -
Augusto Schott Talleres Actif 120 / 122 40% 1 10.08.2027 -
Imrân Louza Watford Actif 139 / 146 40% 1 09.08.2027 -
Jacques Ekomié Wrexham Actif 138 / 125 40% 1 09.08.2027 -
Josh Edwards Charlton Athletic Actif 119 / 111 40% 1 09.08.2027 -
Julio Alonso Huesca Actif 134 / 112 40% 2 07.08.2027 -
Kellen Fisher Norwich City Actif 119 / 128 40% 1 07.08.2027 -
Shea Charles Southampton Actif 152 / 143 40% 1 07.08.2027 -
Max Bird Birmingham Actif 132 / 124 40% 2 06.08.2027 -
Luke McNally Bristol City Actif 142 / 130 40% 1 06.08.2027 -
Isma Ruiz Córdoba Actif 134 / 143 40% 1 06.08.2027 -
Bosun Lawal Stoke City Actif 140 / 140 40% 1 05.08.2027 -
Adrián Lapeña Ceuta Actif 118 / 134 40% 1 05.08.2027 -
Callum Doyle Wrexham Actif 131 / 151 40% 1 04.08.2027 -
Max Conway Bolton Wanderers Actif 126 / 117 40% 2 03.08.2027 -
Nathan Moriah-Welsh Mansfield Town Actif 121 / 120 40% 1 03.08.2027 -
Davide Bartesaghi AC Milan Actif 136 / 140 40% 1 03.08.2027 -
James Morris Leyton Orient Actif 133 / 113 40% 1 23.07.2027 -
Sergio Carreira Celta Actif 137 / 146 40% 1 23.07.2027 -
Paik Seung-Ho Birmingham Perdu 127 / 129 40% 1 12.07.2027 -
Marc Bola Watford Actif 132 / 112 40% 1 12.07.2027 -
Cameron Pring Bristol City Actif 140 / 127 40% 1 12.07.2027 -
Oliver Skipp Leicester City Actif 141 / 135 40% 1 05.07.2027 -
Brooke Norton-Cuffy Hull City Actif 137 / 134 40% 1 05.07.2027 -
Marcos Lliuya UTC Actif 110 / 104 69% 1 21.06.2027 Approuver
Daniel Murillo Atletico Venezuela Actif 80 / 96 40% 3 01.06.2027 -
Nahuel Luján Sport Huancayo Actif 116 / 119 69% 1 01.06.2027 Approuver
Oumar Camara Vitoria Guimaraes Actif 124 / 120 40% 1 01.06.2027 -
Koki Saito Queens Park Rangers Actif 129 / 116 40% 1 31.05.2027 -
Bruno Barrionuevo Godoy Cruz Actif 98 / 91 40% 1 08.12.2026 -
Francisco Galván Deportivo Municipal Actif 110 / 101 69% 1 02.12.2026 Approuver
Isaí Valladares Zamora Actif 102 / 109 40% 1 01.12.2026 -
Juan Velázquez Atlético Madrid Actif 132 / 113 40% 2 30.11.2026 -
Matthias Seidl Rapid Wien Actif 132 / 116 40% 3 29.11.2026 -
Joaquín Rivero Instituto Actif 85 / 102 40% 2 29.11.2026 -
Xavier Biscayzacú Sporting CP Actif 136 / 124 40% 2 29.11.2026 -
Marquinhos APOEL Actif 127 / 114 40% 2 29.11.2026 -
Brais Méndez Columbus Crew Actif 156 / 137 40% 1 29.11.2026 -
Bernard Tekpetey Ludogorets Actif 122 / 125 40% 3 27.11.2026 -
Óscar Al Ahly Actif 122 / 142 40% 2 27.11.2026 -
Tiago Taobas Central Norte Actif 82 / 97 40% 2 24.11.2026 -
Petar Stanić Ludogorets Actif 124 / 127 40% 5 24.11.2026 -
Emam Ashour Al Ahly Actif 138 / 152 40% 2 24.11.2026 -
Santiago Uriza Vélez Actif 84 / 85 40% 3 23.11.2026 -
Víctor Machado Independiente Rivadavia Actif 92 / 103 40% 2 23.11.2026 -
Jeffrey Adjei Wa All Stars Actif 78 / 78 40% 2 23.11.2026 -
Liel Abada Charlotte Football Club Actif 126 / 130 40% 1 19.11.2026 -
Carlos Mora Universitatea Craiova Actif 117 / 113 40% 1 19.11.2026 -
Kirill Glebov CSKA Moscow Actif 137 / 133 40% 1 18.11.2026 -
Sebastian Mailat Botosani Actif 124 / 126 40% 1 16.11.2026 -
Pedrinho Shakhtar Actif 139 / 145 40% 1 16.11.2026 -
Jens Petter Hauge Bodo/Glimt Actif 135 / 153 40% 7 15.11.2026 -
Rubens Dinamo Moscow Actif 124 / 137 40% 1 14.11.2026 -
Tomás Chancalay Minnesota United FC Actif 117 / 126 40% 1 13.11.2026 -
Nazar Voloshyn Dynamo Kyiv Actif 131 / 121 40% 2 12.11.2026 -
Seedy Jatta Sturm Graz Actif 111 / 115 40% 1 09.11.2026 -
Samuel Kalu Botev Plovdiv Actif 112 / 122 40% 1 09.11.2026 -
Csanád Vilmos Dénes Debrecen Actif 114 / 116 40% 1 09.11.2026 -
Ammar Ramadan DAC Dunajska Streda Actif 137 / 110 40% 2 07.11.2026 -
Emil Ceïde Rosenborg Actif 131 / 118 40% 5 06.11.2026 -
Batxi Krasnodar Actif 128 / 132 40% 4 05.11.2026 -
Erik Botheim Viking Actif 134 / 126 40% 2 05.11.2026 -
Szabolcs Szoboszlai Haladas Actif 146 / 132 40% 1 04.11.2026 -
Mykola Shaparenko Dynamo Kyiv Actif 130 / 142 40% 1 03.11.2026 -
Fabricio Mendieta Belgrano Actif 92 / 88 40% 1 02.11.2026 -
Damián Puebla Orenburg Actif 111 / 125 40% 1 02.11.2026 -
Julián Ledesma Arsenal Actif 76 / 86 40% 1 30.10.2026 -
Jonathan Ledesma Platense Actif 93 / 95 40% 3 29.10.2026 -
Thiago Perugini San Lorenzo Actif 92 / 94 40% 3 29.10.2026 -
Alexis Devesa Aldosivi Actif 81 / 91 40% 3 28.10.2026 -
Luka Andrade Montevideo City Torque Actif 102 / 100 40% 1 27.10.2026 -
Alan Coria Defensa y Justicia Actif 99 / 113 40% 2 26.10.2026 -
Lautaro Díaz San Martín Actif 86 / 88 40% 2 22.10.2026 -
Martín Ortega Atlético Tucumán Actif 94 / 99 40% 2 22.10.2026 -
Thiago Ponce Rosario Central Actif 94 / 109 40% 1 21.10.2026 -
Alejandro Garay Independiente Actif 87 / 95 40% 2 19.10.2026 -
Camilo Durán Bloemfontein Celtic Actif 108 / 125 40% 2 19.10.2026 -
Alexandr Chernikov Krasnodar Actif 142 / 132 40% 1 16.10.2026 -
Francisco González Metilli Belgrano Actif 125 / 124 40% 2 15.10.2026 -
Branco Ripoll Aldosivi Actif 81 / 96 40% 1 11.10.2026 -
Alejo Gelsomino Gimnasia La Plata Actif 105 / 101 40% 2 07.10.2026 -
Pavel Bucha FC Cincinnati Actif 143 / 136 40% 1 07.10.2026 -
Suleiman Camara Slovan Bratislava Actif 109 / 116 40% 1 07.10.2026 -
Henrik Bjørdal Viking Actif 117 / 134 40% 1 02.10.2026 -
Ole-Didrik Blomberg Bodo/Glimt Actif 119 / 130 40% 2 01.10.2026 -
Laureano Paez Colón Actif 87 / 98 40% 1 29.09.2026 -
Reda Khadra Qarabag Actif 121 / 118 40% 1 29.09.2026 -
Aliou Dieng Valencia Actif 133 / 129 40% 2 28.09.2026 -
Renzo Lo Bianco Sarmiento Actif 85 / 82 40% 1 25.09.2026 -
Joel Andersson Ludogorets Actif 126 / 131 40% 1 23.09.2026 -
Ignacio Aliseda Cerro Porteno Actif 121 / 120 40% 1 21.09.2026 -
Emil Breivik Molde Actif 136 / 119 40% 1 21.09.2026 -
Dante Azaldegui Deportivo Riestra Actif 85 / 90 40% 1 21.09.2026 -
Lucciano Reinoso Caracas Actif 88 / 85 40% 1 21.09.2026 -
Imran Oulad Omar Dinamo Batumi Actif 114 / 111 40% 1 19.09.2026 -
Maxim De Cuyper Brighton Actif 135 / 152 40% 2 17.09.2026 -
Jordan Lotomba Bloemfontein Celtic Actif 113 / 116 40% 1 17.09.2026 -
Antonio Galeano Remo Stars Actif 112 / 127 40% 1 14.09.2026 -
Arthur Gomes Dinamo Moscow Actif 116 / 137 40% 1 14.09.2026 -
Mauricio Di Gubio Godoy Cruz Actif 74 / 82 40% 1 09.09.2026 -
Ian Escobar Vélez Actif 83 / 105 40% 1 07.09.2026 -
Luca Sapiente Mitre Actif 70 / 91 40% 2 05.09.2026 -
Tobías Ganduglia Independiente Rivadavia Actif 96 / 100 40% 1 05.09.2026 -
Gabriel Monjes Trujillanos Actif 84 / 89 40% 1 05.09.2026 -
Aaron Centurión Vélez Actif 86 / 98 40% 2 02.09.2026 -
Alan Rivero Almirante Brown Actif 77 / 92 40% 1 31.08.2026 -
Gerónimo Kugler Gimnasia La Plata Actif 78 / 87 40% 1 31.08.2026 -
Giuliano Pierini San Lorenzo Actif 88 / 98 40% 1 30.08.2026 -
Gonzalo Sosa Defensa y Justicia Actif 79 / 100 40% 2 29.08.2026 -
Tomás Romero Unión de Santa Fe Actif 104 / 105 40% 2 28.08.2026 -
Ian De Filippi San Lorenzo Actif 78 / 86 40% 1 28.08.2026 -
Lautaro Andrusisen Tigre Actif 71 / 83 40% 1 27.08.2026 -
Lautaro Cipollone Defensores Unidos Actif 85 / 91 40% 1 27.08.2026 -
Lucas Villagra Barracas Central Actif 77 / 78 40% 1 26.08.2026 -
Martín Astudillo Racing Actif 87 / 96 40% 1 23.08.2026 -
Alan Salas San Lorenzo Actif 89 / 90 40% 1 23.08.2026 -
Jesús Duarte Deportivo Tachira Actif 81 / 88 40% 1 20.08.2026 -
Ignacio Copetti Central Córdoba SdE Actif 79 / 93 40% 1 17.08.2026 -
Lorenzo Orzán Colón Actif 93 / 99 40% 1 16.08.2026 -
Lucas Cornejo Estudiantes Actif 98 / 98 40% 1 13.08.2026 -
Luis Rincon Atletico Venezuela Actif 101 / 90 40% 1 13.08.2026 -
Iqraam Rayners Mamelodi Sundowns Actif 124 / 133 40% 1 11.08.2026 -
Matías Pellegrini Vélez Actif 117 / 116 40% 1 11.08.2026 -
Khuliso Mudau Mamelodi Sundowns Actif 122 / 124 40% 1 09.08.2026 -
Costinha Brighton Actif 124 / 125 40% 1 09.08.2026 -
Santiago Ruiz Alvarado Actif 93 / 86 40% 1 08.08.2026 -
Benjamín Godoy Vélez Actif 92 / 97 40% 1 08.08.2026 -
Jairo Concha Universitario Actif 124 / 110 40% 1 08.08.2026 -
Franco Cristaldo Talleres Actif 133 / 117 40% 1 08.08.2026 -
Luther Singh AEL Actif 133 / 136 40% 1 07.08.2026 -
Arnaud Bodart LOSC Lille Actif 114 / 118 40% 2 05.08.2026 -
Fiacre Ntwari Kaizer Chiefs Actif 100 / 96 40% 1 05.08.2026 -
Gonzalo Falcón Cienciano Actif 115 / 116 40% 1 05.08.2026 Plus d'infos
Diego Romero Universitario Actif 118 / 121 40% 1 04.08.2026 -
Diego Enríquez Sporting Cristal Actif 134 / 131 40% 1 04.08.2026 -
Moisés Gallo Caracas Actif 91 / 94 40% 1 04.08.2026 -
Franco Carretero Deportivo Lara Actif 101 / 97 40% 1 03.08.2026 -
Miguel Silva Carabobo Actif 105 / 108 40% 1 02.08.2026 -
Federico Bonansea San Martín SJ Actif 100 / 110 40% 1 01.08.2026 -
Pablo Campos Levante Actif 128 / 117 40% 1 01.08.2026 -